sensor_id;sensor_type;location;lat;lon;timestamp;P1;durP1;ratioP1;P2;durP2;ratioP2
36411;SDS011;22445;52.100;5.176;2023-07-13T00:01:42;6.88;;;1.85;;
36411;SDS011;22445;52.100;5.176;2023-07-13T00:04:08;13.18;;;2.30;;
36411;SDS011;22445;52.100;5.176;2023-07-13T00:06:33;6.70;;;1.80;;
36411;SDS011;22445;52.100;5.176;2023-07-13T00:09:00;8.25;;;1.73;;
36411;SDS011;22445;52.100;5.176;2023-07-13T00:11:27;8.20;;;2.10;;
36411;SDS011;22445;52.100;5.176;2023-07-13T00:13:52;6.00;;;2.05;;
36411;SDS011;22445;52.100;5.176;2023-07-13T00:16:18;8.60;;;2.22;;
36411;SDS011;22445;52.100;5.176;2023-07-13T00:18:44;9.00;;;1.52;;
36411;SDS011;22445;52.100;5.176;2023-07-13T00:21:10;9.02;;;2.30;;
36411;SDS011;22445;52.100;5.176;2023-07-13T00:23:37;8.30;;;2.33;;
36411;SDS011;22445;52.100;5.176;2023-07-13T00:26:06;6.22;;;1.75;;
36411;SDS011;22445;52.100;5.176;2023-07-13T00:28:33;5.38;;;1.83;;
36411;SDS011;22445;52.100;5.176;2023-07-13T00:30:59;9.55;;;1.98;;
36411;SDS011;22445;52.100;5.176;2023-07-13T00:33:27;8.75;;;1.70;;
36411;SDS011;22445;52.100;5.176;2023-07-13T00:35:53;6.10;;;1.77;;
36411;SDS011;22445;52.100;5.176;2023-07-13T00:38:20;4.35;;;1.58;;
36411;SDS011;22445;52.100;5.176;2023-07-13T00:40:45;12.90;;;2.40;;
36411;SDS011;22445;52.100;5.176;2023-07-13T00:43:13;4.97;;;1.73;;
36411;SDS011;22445;52.100;5.176;2023-07-13T00:48:46;7.65;;;1.52;;
36411;SDS011;22445;52.100;5.176;2023-07-13T00:51:13;6.70;;;1.73;;
36411;SDS011;22445;52.100;5.176;2023-07-13T00:53:42;7.78;;;1.70;;
36411;SDS011;22445;52.100;5.176;2023-07-13T00:56:08;9.15;;;1.85;;
36411;SDS011;22445;52.100;5.176;2023-07-13T00:58:33;7.13;;;1.70;;
36411;SDS011;22445;52.100;5.176;2023-07-13T01:01:00;7.70;;;2.10;;
36411;SDS011;22445;52.100;5.176;2023-07-13T01:03:26;5.20;;;1.60;;
36411;SDS011;22445;52.100;5.176;2023-07-13T01:05:51;8.98;;;1.83;;
36411;SDS011;22445;52.100;5.176;2023-07-13T01:08:19;10.32;;;1.67;;
36411;SDS011;22445;52.100;5.176;2023-07-13T01:10:58;7.03;;;1.73;;
36411;SDS011;22445;52.100;5.176;2023-07-13T01:13:23;5.00;;;1.35;;
36411;SDS011;22445;52.100;5.176;2023-07-13T01:15:50;11.32;;;2.20;;
36411;SDS011;22445;52.100;5.176;2023-07-13T01:18:18;5.40;;;1.77;;
36411;SDS011;22445;52.100;5.176;2023-07-13T01:20:59;8.63;;;1.92;;
36411;SDS011;22445;52.100;5.176;2023-07-13T01:23:26;6.82;;;2.03;;
36411;SDS011;22445;52.100;5.176;2023-07-13T01:25:52;6.57;;;1.75;;
36411;SDS011;22445;52.100;5.176;2023-07-13T01:28:19;7.70;;;2.00;;
36411;SDS011;22445;52.100;5.176;2023-07-13T01:30:45;9.00;;;1.80;;
36411;SDS011;22445;52.100;5.176;2023-07-13T01:33:12;9.48;;;2.45;;
36411;SDS011;22445;52.100;5.176;2023-07-13T01:35:38;6.55;;;2.17;;
36411;SDS011;22445;52.100;5.176;2023-07-13T01:38:04;7.00;;;2.40;;
36411;SDS011;22445;52.100;5.176;2023-07-13T01:40:30;4.70;;;2.00;;
36411;SDS011;22445;52.100;5.176;2023-07-13T01:42:57;6.05;;;2.90;;
36411;SDS011;22445;52.100;5.176;2023-07-13T01:45:23;6.60;;;2.40;;
36411;SDS011;22445;52.100;5.176;2023-07-13T01:47:49;7.88;;;2.17;;
36411;SDS011;22445;52.100;5.176;2023-07-13T01:50:14;11.85;;;2.08;;
36411;SDS011;22445;52.100;5.176;2023-07-13T01:52:40;7.65;;;2.42;;
36411;SDS011;22445;52.100;5.176;2023-07-13T01:55:06;9.23;;;1.75;;
36411;SDS011;22445;52.100;5.176;2023-07-13T01:57:32;4.75;;;2.08;;
36411;SDS011;22445;52.100;5.176;2023-07-13T01:59:58;13.80;;;2.58;;
36411;SDS011;22445;52.100;5.176;2023-07-13T02:02:24;8.80;;;2.20;;
36411;SDS011;22445;52.100;5.176;2023-07-13T02:04:49;6.93;;;2.22;;
36411;SDS011;22445;52.100;5.176;2023-07-13T02:07:15;11.43;;;3.15;;
36411;SDS011;22445;52.100;5.176;2023-07-13T02:09:40;11.00;;;3.30;;
36411;SDS011;22445;52.100;5.176;2023-07-13T02:12:07;7.82;;;3.13;;
36411;SDS011;22445;52.100;5.176;2023-07-13T02:14:33;11.68;;;3.15;;
36411;SDS011;22445;52.100;5.176;2023-07-13T02:16:59;5.85;;;2.22;;
36411;SDS011;22445;52.100;5.176;2023-07-13T02:19:24;10.13;;;2.83;;
36411;SDS011;22445;52.100;5.176;2023-07-13T02:21:50;9.27;;;2.22;;
36411;SDS011;22445;52.100;5.176;2023-07-13T02:24:15;13.23;;;3.10;;
36411;SDS011;22445;52.100;5.176;2023-07-13T02:26:45;6.40;;;2.03;;
36411;SDS011;22445;52.100;5.176;2023-07-13T02:29:11;11.05;;;3.10;;
36411;SDS011;22445;52.100;5.176;2023-07-13T02:31:37;7.00;;;2.38;;
36411;SDS011;22445;52.100;5.176;2023-07-13T02:34:02;13.02;;;2.58;;
36411;SDS011;22445;52.100;5.176;2023-07-13T02:36:29;11.35;;;3.13;;
36411;SDS011;22445;52.100;5.176;2023-07-13T02:38:55;10.38;;;3.47;;
36411;SDS011;22445;52.100;5.176;2023-07-13T02:41:21;8.77;;;2.78;;
36411;SDS011;22445;52.100;5.176;2023-07-13T02:43:48;11.18;;;3.28;;
36411;SDS011;22445;52.100;5.176;2023-07-13T02:46:13;9.57;;;2.67;;
36411;SDS011;22445;52.100;5.176;2023-07-13T02:48:39;7.45;;;2.30;;
36411;SDS011;22445;52.100;5.176;2023-07-13T02:51:05;14.60;;;3.47;;
36411;SDS011;22445;52.100;5.176;2023-07-13T02:53:31;10.05;;;3.08;;
36411;SDS011;22445;52.100;5.176;2023-07-13T02:55:57;10.10;;;3.10;;
36411;SDS011;22445;52.100;5.176;2023-07-13T02:58:22;14.27;;;3.25;;
36411;SDS011;22445;52.100;5.176;2023-07-13T03:00:48;15.10;;;3.17;;
36411;SDS011;22445;52.100;5.176;2023-07-13T03:03:15;9.48;;;2.95;;
36411;SDS011;22445;52.100;5.176;2023-07-13T03:05:42;7.93;;;2.50;;
36411;SDS011;22445;52.100;5.176;2023-07-13T03:08:11;10.63;;;2.80;;
36411;SDS011;22445;52.100;5.176;2023-07-13T03:10:37;9.63;;;2.78;;
36411;SDS011;22445;52.100;5.176;2023-07-13T03:13:04;10.30;;;2.50;;
36411;SDS011;22445;52.100;5.176;2023-07-13T03:15:30;9.98;;;2.97;;
36411;SDS011;22445;52.100;5.176;2023-07-13T03:17:56;9.95;;;2.40;;
36411;SDS011;22445;52.100;5.176;2023-07-13T03:20:21;8.63;;;2.55;;
36411;SDS011;22445;52.100;5.176;2023-07-13T03:22:47;10.85;;;2.67;;
36411;SDS011;22445;52.100;5.176;2023-07-13T03:25:12;6.65;;;2.30;;
36411;SDS011;22445;52.100;5.176;2023-07-13T03:27:38;8.15;;;2.20;;
36411;SDS011;22445;52.100;5.176;2023-07-13T03:30:04;14.98;;;3.28;;
36411;SDS011;22445;52.100;5.176;2023-07-13T03:32:30;8.50;;;3.00;;
36411;SDS011;22445;52.100;5.176;2023-07-13T03:34:56;8.73;;;2.42;;
36411;SDS011;22445;52.100;5.176;2023-07-13T03:37:21;11.45;;;2.67;;
36411;SDS011;22445;52.100;5.176;2023-07-13T03:39:47;6.70;;;2.70;;
36411;SDS011;22445;52.100;5.176;2023-07-13T03:42:13;8.23;;;3.13;;
36411;SDS011;22445;52.100;5.176;2023-07-13T03:44:39;14.48;;;3.40;;
36411;SDS011;22445;52.100;5.176;2023-07-13T03:47:05;11.50;;;3.50;;
36411;SDS011;22445;52.100;5.176;2023-07-13T03:49:33;9.68;;;3.20;;
36411;SDS011;22445;52.100;5.176;2023-07-13T03:51:59;12.50;;;3.00;;
36411;SDS011;22445;52.100;5.176;2023-07-13T03:54:25;9.25;;;2.80;;
36411;SDS011;22445;52.100;5.176;2023-07-13T03:56:50;10.25;;;3.75;;
36411;SDS011;22445;52.100;5.176;2023-07-13T03:59:16;14.35;;;3.85;;
36411;SDS011;22445;52.100;5.176;2023-07-13T04:01:43;13.82;;;3.75;;
36411;SDS011;22445;52.100;5.176;2023-07-13T04:04:08;12.63;;;3.90;;
36411;SDS011;22445;52.100;5.176;2023-07-13T04:06:34;14.15;;;4.18;;
36411;SDS011;22445;52.100;5.176;2023-07-13T04:09:00;15.50;;;4.43;;
36411;SDS011;22445;52.100;5.176;2023-07-13T04:11:27;13.45;;;4.40;;
36411;SDS011;22445;52.100;5.176;2023-07-13T04:13:56;16.02;;;4.93;;
36411;SDS011;22445;52.100;5.176;2023-07-13T04:16:22;12.40;;;4.45;;
36411;SDS011;22445;52.100;5.176;2023-07-13T04:18:48;13.65;;;5.32;;
36411;SDS011;22445;52.100;5.176;2023-07-13T04:21:15;14.40;;;5.03;;
36411;SDS011;22445;52.100;5.176;2023-07-13T04:23:41;16.27;;;5.80;;
36411;SDS011;22445;52.100;5.176;2023-07-13T04:26:07;20.77;;;5.30;;
36411;SDS011;22445;52.100;5.176;2023-07-13T04:28:34;15.63;;;5.10;;
36411;SDS011;22445;52.100;5.176;2023-07-13T04:31:00;16.08;;;4.78;;
36411;SDS011;22445;52.100;5.176;2023-07-13T04:33:26;17.35;;;6.07;;
36411;SDS011;22445;52.100;5.176;2023-07-13T04:35:53;22.30;;;5.70;;
36411;SDS011;22445;52.100;5.176;2023-07-13T04:38:31;15.75;;;5.00;;
36411;SDS011;22445;52.100;5.176;2023-07-13T04:41:00;22.23;;;5.32;;
36411;SDS011;22445;52.100;5.176;2023-07-13T04:43:27;17.65;;;5.55;;
36411;SDS011;22445;52.100;5.176;2023-07-13T04:45:54;17.75;;;5.35;;
36411;SDS011;22445;52.100;5.176;2023-07-13T04:48:19;16.77;;;5.22;;
36411;SDS011;22445;52.100;5.176;2023-07-13T04:50:45;20.67;;;6.38;;
36411;SDS011;22445;52.100;5.176;2023-07-13T04:53:11;19.90;;;5.72;;
36411;SDS011;22445;52.100;5.176;2023-07-13T04:55:37;13.85;;;5.45;;
36411;SDS011;22445;52.100;5.176;2023-07-13T04:58:03;16.13;;;5.68;;
36411;SDS011;22445;52.100;5.176;2023-07-13T05:00:29;18.35;;;5.00;;
36411;SDS011;22445;52.100;5.176;2023-07-13T05:02:56;21.33;;;7.68;;
36411;SDS011;22445;52.100;5.176;2023-07-13T05:05:22;20.83;;;5.80;;
36411;SDS011;22445;52.100;5.176;2023-07-13T05:07:48;12.15;;;4.65;;
36411;SDS011;22445;52.100;5.176;2023-07-13T05:10:14;12.00;;;5.50;;
36411;SDS011;22445;52.100;5.176;2023-07-13T05:12:40;14.70;;;4.78;;
36411;SDS011;22445;52.100;5.176;2023-07-13T05:15:06;20.08;;;5.40;;
36411;SDS011;22445;52.100;5.176;2023-07-13T05:17:32;14.73;;;4.53;;
36411;SDS011;22445;52.100;5.176;2023-07-13T05:19:58;15.90;;;4.80;;
36411;SDS011;22445;52.100;5.176;2023-07-13T05:22:23;17.10;;;5.05;;
36411;SDS011;22445;52.100;5.176;2023-07-13T05:24:49;14.10;;;5.60;;
36411;SDS011;22445;52.100;5.176;2023-07-13T05:27:14;19.75;;;5.85;;
36411;SDS011;22445;52.100;5.176;2023-07-13T05:29:40;11.35;;;4.93;;
36411;SDS011;22445;52.100;5.176;2023-07-13T05:32:06;12.93;;;4.75;;
36411;SDS011;22445;52.100;5.176;2023-07-13T05:34:31;19.38;;;6.30;;
36411;SDS011;22445;52.100;5.176;2023-07-13T05:36:57;13.95;;;4.88;;
36411;SDS011;22445;52.100;5.176;2023-07-13T05:39:23;13.85;;;5.15;;
36411;SDS011;22445;52.100;5.176;2023-07-13T05:41:48;23.45;;;6.82;;
36411;SDS011;22445;52.100;5.176;2023-07-13T05:44:14;9.20;;;4.93;;
36411;SDS011;22445;52.100;5.176;2023-07-13T05:46:40;16.45;;;5.50;;
36411;SDS011;22445;52.100;5.176;2023-07-13T05:49:05;18.10;;;5.80;;
36411;SDS011;22445;52.100;5.176;2023-07-13T05:51:31;17.50;;;5.65;;
36411;SDS011;22445;52.100;5.176;2023-07-13T05:53:56;10.90;;;5.25;;
36411;SDS011;22445;52.100;5.176;2023-07-13T05:56:22;16.33;;;5.43;;
36411;SDS011;22445;52.100;5.176;2023-07-13T05:58:48;18.33;;;5.35;;
36411;SDS011;22445;52.100;5.176;2023-07-13T06:01:14;18.70;;;5.30;;
36411;SDS011;22445;52.100;5.176;2023-07-13T06:03:40;13.50;;;5.18;;
36411;SDS011;22445;52.100;5.176;2023-07-13T06:06:07;12.82;;;4.80;;
36411;SDS011;22445;52.100;5.176;2023-07-13T06:08:33;15.23;;;5.80;;
36411;SDS011;22445;52.100;5.176;2023-07-13T06:13:45;16.92;;;5.20;;
36411;SDS011;22445;52.100;5.176;2023-07-13T06:16:10;14.65;;;5.85;;
36411;SDS011;22445;52.100;5.176;2023-07-13T06:18:39;12.35;;;5.03;;
36411;SDS011;22445;52.100;5.176;2023-07-13T06:23:54;15.98;;;5.85;;
36411;SDS011;22445;52.100;5.176;2023-07-13T06:26:20;16.25;;;5.97;;
36411;SDS011;22445;52.100;5.176;2023-07-13T06:28:46;17.55;;;6.30;;
36411;SDS011;22445;52.100;5.176;2023-07-13T06:31:12;15.60;;;6.38;;
36411;SDS011;22445;52.100;5.176;2023-07-13T06:33:39;15.40;;;5.88;;
36411;SDS011;22445;52.100;5.176;2023-07-13T06:36:05;16.60;;;6.30;;
36411;SDS011;22445;52.100;5.176;2023-07-13T06:38:32;16.70;;;6.78;;
36411;SDS011;22445;52.100;5.176;2023-07-13T06:40:58;19.13;;;6.20;;
36411;SDS011;22445;52.100;5.176;2023-07-13T06:43:23;12.90;;;7.13;;
36411;SDS011;22445;52.100;5.176;2023-07-13T06:45:54;14.50;;;6.80;;
36411;SDS011;22445;52.100;5.176;2023-07-13T06:48:20;14.98;;;7.10;;
36411;SDS011;22445;52.100;5.176;2023-07-13T06:50:47;15.10;;;6.85;;
36411;SDS011;22445;52.100;5.176;2023-07-13T06:53:13;14.98;;;7.28;;
36411;SDS011;22445;52.100;5.176;2023-07-13T06:55:39;18.42;;;7.93;;
36411;SDS011;22445;52.100;5.176;2023-07-13T06:58:05;18.27;;;8.85;;
36411;SDS011;22445;52.100;5.176;2023-07-13T07:00:31;21.08;;;8.85;;
36411;SDS011;22445;52.100;5.176;2023-07-13T07:02:57;14.32;;;7.63;;
36411;SDS011;22445;52.100;5.176;2023-07-13T07:05:22;14.55;;;8.02;;
36411;SDS011;22445;52.100;5.176;2023-07-13T07:07:49;16.30;;;10.45;;
36411;SDS011;22445;52.100;5.176;2023-07-13T07:10:15;17.35;;;9.40;;
36411;SDS011;22445;52.100;5.176;2023-07-13T07:12:41;21.83;;;10.07;;
36411;SDS011;22445;52.100;5.176;2023-07-13T07:15:06;26.08;;;10.25;;
36411;SDS011;22445;52.100;5.176;2023-07-13T07:17:32;20.20;;;10.07;;
36411;SDS011;22445;52.100;5.176;2023-07-13T07:19:58;20.88;;;10.57;;
36411;SDS011;22445;52.100;5.176;2023-07-13T07:22:23;20.25;;;10.60;;
36411;SDS011;22445;52.100;5.176;2023-07-13T07:24:52;22.23;;;10.57;;
36411;SDS011;22445;52.100;5.176;2023-07-13T07:27:18;18.33;;;9.98;;
36411;SDS011;22445;52.100;5.176;2023-07-13T07:29:44;16.27;;;9.13;;
36411;SDS011;22445;52.100;5.176;2023-07-13T07:32:09;19.75;;;8.73;;
36411;SDS011;22445;52.100;5.176;2023-07-13T07:34:35;20.83;;;8.88;;
36411;SDS011;22445;52.100;5.176;2023-07-13T07:37:01;19.05;;;9.50;;
36411;SDS011;22445;52.100;5.176;2023-07-13T07:39:27;19.95;;;10.10;;
36411;SDS011;22445;52.100;5.176;2023-07-13T07:41:53;14.02;;;9.13;;
36411;SDS011;22445;52.100;5.176;2023-07-13T07:44:19;17.60;;;9.60;;
36411;SDS011;22445;52.100;5.176;2023-07-13T07:46:45;20.17;;;9.93;;
36411;SDS011;22445;52.100;5.176;2023-07-13T07:49:11;17.35;;;7.88;;
36411;SDS011;22445;52.100;5.176;2023-07-13T07:51:37;17.48;;;8.02;;
36411;SDS011;22445;52.100;5.176;2023-07-13T07:54:03;15.30;;;8.48;;
36411;SDS011;22445;52.100;5.176;2023-07-13T07:56:29;14.10;;;7.55;;
36411;SDS011;22445;52.100;5.176;2023-07-13T07:58:55;11.73;;;6.78;;
36411;SDS011;22445;52.100;5.176;2023-07-13T08:01:20;15.18;;;7.57;;
36411;SDS011;22445;52.100;5.176;2023-07-13T08:03:47;12.77;;;7.00;;
36411;SDS011;22445;52.100;5.176;2023-07-13T08:06:12;12.77;;;6.10;;
36411;SDS011;22445;52.100;5.176;2023-07-13T08:08:38;13.18;;;6.00;;
36411;SDS011;22445;52.100;5.176;2023-07-13T08:11:04;9.93;;;5.20;;
36411;SDS011;22445;52.100;5.176;2023-07-13T08:13:32;11.23;;;5.57;;
36411;SDS011;22445;52.100;5.176;2023-07-13T08:15:58;11.10;;;4.93;;
36411;SDS011;22445;52.100;5.176;2023-07-13T08:18:24;7.25;;;3.75;;
36411;SDS011;22445;52.100;5.176;2023-07-13T08:20:49;8.90;;;3.45;;
36411;SDS011;22445;52.100;5.176;2023-07-13T08:23:15;8.77;;;3.40;;
36411;SDS011;22445;52.100;5.176;2023-07-13T08:25:42;10.38;;;2.60;;
36411;SDS011;22445;52.100;5.176;2023-07-13T08:28:08;5.07;;;2.00;;
36411;SDS011;22445;52.100;5.176;2023-07-13T08:30:33;4.10;;;1.67;;
36411;SDS011;22445;52.100;5.176;2023-07-13T08:32:59;3.40;;;1.88;;
36411;SDS011;22445;52.100;5.176;2023-07-13T08:35:24;3.25;;;1.88;;
36411;SDS011;22445;52.100;5.176;2023-07-13T08:37:51;4.97;;;1.88;;
36411;SDS011;22445;52.100;5.176;2023-07-13T08:40:17;4.68;;;2.00;;
36411;SDS011;22445;52.100;5.176;2023-07-13T08:48:22;5.50;;;2.22;;
36411;SDS011;22445;52.100;5.176;2023-07-13T08:50:54;5.07;;;2.20;;
36411;SDS011;22445;52.100;5.176;2023-07-13T08:53:48;3.92;;;2.13;;
36411;SDS011;22445;52.100;5.176;2023-07-13T08:56:19;7.90;;;3.30;;
36411;SDS011;22445;52.100;5.176;2023-07-13T08:58:47;7.00;;;3.50;;
36411;SDS011;22445;52.100;5.176;2023-07-13T09:04:22;8.10;;;3.35;;
36411;SDS011;22445;52.100;5.176;2023-07-13T09:15:43;4.30;;;1.75;;
36411;SDS011;22445;52.100;5.176;2023-07-13T09:21:22;5.78;;;2.40;;
36411;SDS011;22445;52.100;5.176;2023-07-13T09:23:52;5.40;;;2.20;;
36411;SDS011;22445;52.100;5.176;2023-07-13T09:26:21;3.80;;;1.75;;
36411;SDS011;22445;52.100;5.176;2023-07-13T09:28:48;5.10;;;2.13;;
36411;SDS011;22445;52.100;5.176;2023-07-13T09:31:44;2.45;;;1.85;;
36411;SDS011;22445;52.100;5.176;2023-07-13T09:34:13;7.13;;;2.70;;
36411;SDS011;22445;52.100;5.176;2023-07-13T09:36:38;6.20;;;2.33;;
36411;SDS011;22445;52.100;5.176;2023-07-13T09:42:00;2.28;;;1.90;;
36411;SDS011;22445;52.100;5.176;2023-07-13T09:47:28;6.00;;;2.47;;
36411;SDS011;22445;52.100;5.176;2023-07-13T09:49:55;4.20;;;1.98;;
36411;SDS011;22445;52.100;5.176;2023-07-13T09:52:23;3.28;;;2.00;;
36411;SDS011;22445;52.100;5.176;2023-07-13T09:54:50;4.43;;;1.83;;
36411;SDS011;22445;52.100;5.176;2023-07-13T09:57:17;7.60;;;1.98;;
36411;SDS011;22445;52.100;5.176;2023-07-13T09:59:49;3.53;;;1.45;;
36411;SDS011;22445;52.100;5.176;2023-07-13T10:02:31;5.07;;;1.60;;
36411;SDS011;22445;52.100;5.176;2023-07-13T10:04:59;2.90;;;1.70;;
36411;SDS011;22445;52.100;5.176;2023-07-13T10:07:50;4.07;;;1.50;;
36411;SDS011;22445;52.100;5.176;2023-07-13T10:10:17;2.47;;;1.38;;
36411;SDS011;22445;52.100;5.176;2023-07-13T10:12:45;3.30;;;1.35;;
36411;SDS011;22445;52.100;5.176;2023-07-13T10:15:19;3.58;;;1.42;;
36411;SDS011;22445;52.100;5.176;2023-07-13T10:17:46;4.78;;;1.77;;
36411;SDS011;22445;52.100;5.176;2023-07-13T10:20:12;5.82;;;2.00;;
36411;SDS011;22445;52.100;5.176;2023-07-13T10:25:28;5.05;;;2.20;;
36411;SDS011;22445;52.100;5.176;2023-07-13T10:27:58;4.90;;;2.30;;
36411;SDS011;22445;52.100;5.176;2023-07-13T10:30:31;3.20;;;2.10;;
36411;SDS011;22445;52.100;5.176;2023-07-13T10:33:00;4.78;;;2.00;;
36411;SDS011;22445;52.100;5.176;2023-07-13T10:35:27;2.95;;;1.55;;
36411;SDS011;22445;52.100;5.176;2023-07-13T10:40:56;3.53;;;1.40;;
36411;SDS011;22445;52.100;5.176;2023-07-13T10:43:25;3.05;;;1.30;;
36411;SDS011;22445;52.100;5.176;2023-07-13T10:45:53;2.35;;;1.17;;
36411;SDS011;22445;52.100;5.176;2023-07-13T10:48:20;3.20;;;1.52;;
36411;SDS011;22445;52.100;5.176;2023-07-13T10:50:48;3.25;;;1.30;;
36411;SDS011;22445;52.100;5.176;2023-07-13T10:53:27;2.40;;;1.30;;
36411;SDS011;22445;52.100;5.176;2023-07-13T10:56:04;3.03;;;1.30;;
36411;SDS011;22445;52.100;5.176;2023-07-13T10:58:34;3.40;;;1.50;;
36411;SDS011;22445;52.100;5.176;2023-07-13T11:03:55;2.15;;;1.20;;
36411;SDS011;22445;52.100;5.176;2023-07-13T11:09:34;4.28;;;1.70;;
36411;SDS011;22445;52.100;5.176;2023-07-13T11:15:15;6.97;;;2.53;;
36411;SDS011;22445;52.100;5.176;2023-07-13T11:17:54;4.90;;;2.70;;
36411;SDS011;22445;52.100;5.176;2023-07-13T11:20:33;6.15;;;2.53;;
36411;SDS011;22445;52.100;5.176;2023-07-13T11:25:46;6.20;;;2.70;;
36411;SDS011;22445;52.100;5.176;2023-07-13T11:33:48;5.45;;;2.50;;
36411;SDS011;22445;52.100;5.176;2023-07-13T11:36:16;5.47;;;2.15;;
36411;SDS011;22445;52.100;5.176;2023-07-13T11:38:57;5.32;;;2.60;;
36411;SDS011;22445;52.100;5.176;2023-07-13T11:41:54;4.57;;;2.60;;
36411;SDS011;22445;52.100;5.176;2023-07-13T11:44:23;3.70;;;1.75;;
36411;SDS011;22445;52.100;5.176;2023-07-13T11:46:50;5.80;;;2.38;;
36411;SDS011;22445;52.100;5.176;2023-07-13T11:49:24;5.47;;;2.13;;
36411;SDS011;22445;52.100;5.176;2023-07-13T11:51:52;4.68;;;1.83;;
36411;SDS011;22445;52.100;5.176;2023-07-13T11:54:33;3.38;;;1.58;;
36411;SDS011;22445;52.100;5.176;2023-07-13T11:59:56;3.20;;;1.42;;
36411;SDS011;22445;52.100;5.176;2023-07-13T12:02:33;3.60;;;1.50;;
36411;SDS011;22445;52.100;5.176;2023-07-13T12:05:02;3.00;;;1.48;;
36411;SDS011;22445;52.100;5.176;2023-07-13T12:07:30;4.03;;;1.90;;
36411;SDS011;22445;52.100;5.176;2023-07-13T12:10:03;4.85;;;1.58;;
36411;SDS011;22445;52.100;5.176;2023-07-13T12:15:39;2.00;;;1.52;;
36411;SDS011;22445;52.100;5.176;2023-07-13T12:20:59;4.68;;;1.92;;
36411;SDS011;22445;52.100;5.176;2023-07-13T12:23:29;6.00;;;2.20;;
36411;SDS011;22445;52.100;5.176;2023-07-13T12:25:57;5.13;;;1.73;;
36411;SDS011;22445;52.100;5.176;2023-07-13T12:28:33;5.65;;;1.88;;
36411;SDS011;22445;52.100;5.176;2023-07-13T12:31:02;5.25;;;2.25;;
36411;SDS011;22445;52.100;5.176;2023-07-13T12:33:31;7.10;;;2.30;;
36411;SDS011;22445;52.100;5.176;2023-07-13T12:35:59;4.80;;;2.05;;
36411;SDS011;22445;52.100;5.176;2023-07-13T12:38:27;3.88;;;1.85;;
36411;SDS011;22445;52.100;5.176;2023-07-13T12:40:52;5.43;;;1.90;;
36411;SDS011;22445;52.100;5.176;2023-07-13T12:43:19;3.40;;;1.80;;
36411;SDS011;22445;52.100;5.176;2023-07-13T12:48:41;3.40;;;1.48;;
36411;SDS011;22445;52.100;5.176;2023-07-13T12:51:09;2.55;;;1.50;;
36411;SDS011;22445;52.100;5.176;2023-07-13T12:53:35;2.78;;;1.30;;
36411;SDS011;22445;52.100;5.176;2023-07-13T12:56:05;3.40;;;1.55;;
36411;SDS011;22445;52.100;5.176;2023-07-13T13:01:29;3.70;;;1.48;;
36411;SDS011;22445;52.100;5.176;2023-07-13T13:04:00;3.22;;;1.35;;
36411;SDS011;22445;52.100;5.176;2023-07-13T13:06:27;2.10;;;1.27;;
36411;SDS011;22445;52.100;5.176;2023-07-13T13:08:57;2.95;;;1.50;;
36411;SDS011;22445;52.100;5.176;2023-07-13T13:11:24;2.47;;;1.70;;
36411;SDS011;22445;52.100;5.176;2023-07-13T13:13:51;2.70;;;1.48;;
36411;SDS011;22445;52.100;5.176;2023-07-13T13:16:28;1.92;;;1.50;;
36411;SDS011;22445;52.100;5.176;2023-07-13T13:19:01;3.97;;;1.70;;
36411;SDS011;22445;52.100;5.176;2023-07-13T13:21:37;2.47;;;1.60;;
36411;SDS011;22445;52.100;5.176;2023-07-13T13:24:04;5.95;;;1.75;;
36411;SDS011;22445;52.100;5.176;2023-07-13T13:26:36;3.72;;;1.98;;
36411;SDS011;22445;52.100;5.176;2023-07-13T13:29:03;2.75;;;1.67;;
36411;SDS011;22445;52.100;5.176;2023-07-13T13:31:35;4.05;;;2.00;;
36411;SDS011;22445;52.100;5.176;2023-07-13T13:34:00;3.80;;;1.95;;
36411;SDS011;22445;52.100;5.176;2023-07-13T13:36:26;2.60;;;1.45;;
36411;SDS011;22445;52.100;5.176;2023-07-13T13:38:51;3.53;;;2.20;;
36411;SDS011;22445;52.100;5.176;2023-07-13T13:41:17;3.38;;;1.50;;
36411;SDS011;22445;52.100;5.176;2023-07-13T13:43:43;4.78;;;1.88;;
36411;SDS011;22445;52.100;5.176;2023-07-13T13:46:22;4.10;;;1.92;;
36411;SDS011;22445;52.100;5.176;2023-07-13T13:48:50;6.40;;;2.70;;
36411;SDS011;22445;52.100;5.176;2023-07-13T13:51:19;3.28;;;1.50;;
36411;SDS011;22445;52.100;5.176;2023-07-13T13:53:47;3.20;;;1.75;;
36411;SDS011;22445;52.100;5.176;2023-07-13T13:56:13;4.55;;;1.95;;
36411;SDS011;22445;52.100;5.176;2023-07-13T13:58:39;2.65;;;1.92;;
36411;SDS011;22445;52.100;5.176;2023-07-13T14:01:08;4.90;;;1.95;;
36411;SDS011;22445;52.100;5.176;2023-07-13T14:03:39;3.58;;;1.67;;
36411;SDS011;22445;52.100;5.176;2023-07-13T14:06:05;3.33;;;1.77;;
36411;SDS011;22445;52.100;5.176;2023-07-13T14:08:32;3.92;;;1.70;;
36411;SDS011;22445;52.100;5.176;2023-07-13T14:10:58;4.13;;;1.90;;
36411;SDS011;22445;52.100;5.176;2023-07-13T14:13:36;4.97;;;2.17;;
36411;SDS011;22445;52.100;5.176;2023-07-13T14:16:11;4.50;;;1.60;;
36411;SDS011;22445;52.100;5.176;2023-07-13T14:18:42;3.30;;;1.70;;
36411;SDS011;22445;52.100;5.176;2023-07-13T14:21:13;2.67;;;1.70;;
36411;SDS011;22445;52.100;5.176;2023-07-13T14:23:41;4.03;;;1.48;;
36411;SDS011;22445;52.100;5.176;2023-07-13T14:26:09;3.50;;;1.92;;
36411;SDS011;22445;52.100;5.176;2023-07-13T14:28:47;5.35;;;1.60;;
36411;SDS011;22445;52.100;5.176;2023-07-13T14:31:13;3.13;;;1.52;;
36411;SDS011;22445;52.100;5.176;2023-07-13T14:33:40;1.85;;;1.40;;
36411;SDS011;22445;52.100;5.176;2023-07-13T14:36:16;3.08;;;1.55;;
36411;SDS011;22445;52.100;5.176;2023-07-13T14:38:51;2.53;;;1.60;;
36411;SDS011;22445;52.100;5.176;2023-07-13T14:41:18;3.00;;;1.50;;
36411;SDS011;22445;52.100;5.176;2023-07-13T14:43:44;3.53;;;1.40;;
36411;SDS011;22445;52.100;5.176;2023-07-13T14:46:18;1.70;;;1.60;;
36411;SDS011;22445;52.100;5.176;2023-07-13T14:52:05;3.05;;;1.23;;
36411;SDS011;22445;52.100;5.176;2023-07-13T14:54:36;3.53;;;1.70;;
36411;SDS011;22445;52.100;5.176;2023-07-13T14:57:08;3.38;;;1.20;;
36411;SDS011;22445;52.100;5.176;2023-07-13T14:59:38;3.50;;;1.45;;
36411;SDS011;22445;52.100;5.176;2023-07-13T15:02:11;3.35;;;1.45;;
36411;SDS011;22445;52.100;5.176;2023-07-13T15:05:05;2.05;;;1.20;;
36411;SDS011;22445;52.100;5.176;2023-07-13T15:07:37;5.05;;;1.60;;
36411;SDS011;22445;52.100;5.176;2023-07-13T15:10:11;1.65;;;1.23;;
36411;SDS011;22445;52.100;5.176;2023-07-13T15:12:41;3.97;;;1.60;;
36411;SDS011;22445;52.100;5.176;2023-07-13T15:15:06;2.58;;;1.30;;
36411;SDS011;22445;52.100;5.176;2023-07-13T15:20:21;2.80;;;1.10;;
36411;SDS011;22445;52.100;5.176;2023-07-13T15:23:00;3.50;;;1.23;;
36411;SDS011;22445;52.100;5.176;2023-07-13T15:25:27;2.05;;;1.30;;
36411;SDS011;22445;52.100;5.176;2023-07-13T15:27:54;3.58;;;1.25;;
36411;SDS011;22445;52.100;5.176;2023-07-13T15:30:20;2.80;;;1.30;;
36411;SDS011;22445;52.100;5.176;2023-07-13T15:32:46;1.70;;;0.98;;
36411;SDS011;22445;52.100;5.176;2023-07-13T15:35:13;3.65;;;1.48;;
36411;SDS011;22445;52.100;5.176;2023-07-13T15:37:41;2.72;;;1.35;;
36411;SDS011;22445;52.100;5.176;2023-07-13T15:40:07;2.13;;;1.20;;
36411;SDS011;22445;52.100;5.176;2023-07-13T15:42:33;2.75;;;1.10;;
36411;SDS011;22445;52.100;5.176;2023-07-13T15:45:01;3.20;;;1.02;;
36411;SDS011;22445;52.100;5.176;2023-07-13T15:47:27;2.22;;;1.10;;
36411;SDS011;22445;52.100;5.176;2023-07-13T15:49:52;3.10;;;1.38;;
36411;SDS011;22445;52.100;5.176;2023-07-13T15:52:19;2.67;;;1.23;;
36411;SDS011;22445;52.100;5.176;2023-07-13T15:54:47;2.42;;;1.02;;
36411;SDS011;22445;52.100;5.176;2023-07-13T15:57:13;2.25;;;1.20;;
36411;SDS011;22445;52.100;5.176;2023-07-13T15:59:39;1.48;;;0.82;;
36411;SDS011;22445;52.100;5.176;2023-07-13T16:02:12;4.15;;;1.50;;
36411;SDS011;22445;52.100;5.176;2023-07-13T16:04:39;2.10;;;1.20;;
36411;SDS011;22445;52.100;5.176;2023-07-13T16:07:08;2.05;;;1.20;;